Ayer, MA

2:03 PM EDT on July 24, 2016 (GMT -0400)
Ayer Center | | Change Station

Elev 230 ft 42.56 °N, 71.59 °W | Updated 15 seconds ago

Clear
Clear
87.4 °F
Feels Like 84 °F
N
0.2
Wind Variable Wind from WSW
Gusts 2.5 mph

Today
High -- | Low -- °F
--% Chance of Precip.
Yesterday
High -- | Low -- °F
Precip. -- in
Pressure 29.95 in
Visibility 10.0 miles
Clouds Clear
Heat Index 84 °F
Dew Point 31 °F
Humidity 13%
Rainfall 0.00 in
Snow Depth Not available.
5:30 AM 8:14 PM
Waning Gibbous, 74% visible
METAR KFIT 241752Z AUTO 35010G17KT 10SM CLR 31/13 A2995 RMK AO2 SLP140 T03110133 10311 20233 58004
Pressure 29.95 in
Visibility 10.0 miles
Clouds Clear
Heat Index 84 °F
Dew Point 31 °F
Humidity 13%
Rainfall 0.00 in
Snow Depth Not available.
5:30 AM 8:14 PM
Waning Gibbous, 74% visible
METAR KFIT 241752Z AUTO 35010G17KT 10SM CLR 31/13 A2995 RMK AO2 SLP140 T03110133 10311 20233 58004

10-Day Weather Forecast

Almanac

Astronomy

Jul. 24, 2016 Rise Set
Actual Time
Civil Twilight
Nautical Twilight
Astronomical Twilight
Moon
Length of Visible Light
Length of Day
Tomorrow will be .
, % of the Moon is Illuminated

Today's Extremes

State Highs State Lows

Community

WunderPhotos

Upload Photos

1,927,142 photos uploaded!

WunderBlog® & News

Nearby

Air Quality

  Air Quality AQ Index Pollutant
Not available.

Snow Depth

Station Depth Elevation

Earthquake Activity

City Distance Mag. Time & Date
Minimum magnitude displayed is 2.5.

Coastal Water Temperatures

Place Temperature

Stations

Nearby Weather Stations

Station Location Temp. Windchill Dew Point Humidity Wind Precip. Elev Updated Type
                   

Watches & Warnings

There are currently no watches in effect.